createdAt,value
2023-02-15T00:00:38.967Z,92.53
2023-02-15T00:03:05.462Z,92.90
2023-02-15T00:05:32.324Z,92.19
2023-02-15T00:07:58.739Z,92.33
2023-02-15T00:10:25.139Z,91.77
2023-02-15T00:12:51.525Z,91.62
2023-02-15T00:15:18.019Z,91.94
2023-02-15T00:17:44.450Z,91.69
2023-02-15T00:20:11.854Z,91.55
2023-02-15T00:22:38.271Z,91.34
2023-02-15T00:25:04.942Z,92.52
2023-02-15T00:27:31.355Z,92.74
2023-02-15T00:29:57.857Z,92.57
2023-02-15T00:32:24.270Z,92.65
2023-02-15T00:34:50.660Z,91.97
2023-02-15T00:37:17.129Z,92.25
2023-02-15T00:39:47.231Z,92.32
2023-02-15T00:42:13.626Z,92.01
2023-02-15T00:44:40.049Z,92.37
2023-02-15T00:47:06.543Z,92.05
2023-02-15T00:49:33.383Z,91.93
2023-02-15T00:51:59.808Z,92.29
2023-02-15T00:54:26.219Z,92.48
2023-02-15T00:56:52.627Z,92.83
2023-02-15T00:59:19.044Z,92.19
2023-02-15T01:01:47.548Z,91.50
2023-02-15T01:04:13.992Z,92.52
2023-02-15T01:06:40.432Z,92.81
2023-02-15T01:09:06.895Z,92.88
2023-02-15T01:11:33.321Z,92.51
2023-02-15T01:13:59.795Z,92.57
2023-02-15T01:16:28.573Z,92.87
2023-02-15T01:18:57.986Z,92.75
2023-02-15T01:21:26.119Z,93.04
2023-02-15T01:23:52.905Z,92.28
2023-02-15T01:26:19.300Z,91.95
2023-02-15T01:28:46.511Z,92.16
2023-02-15T01:31:15.772Z,92.04
2023-02-15T01:33:44.533Z,92.34
2023-02-15T01:36:11.294Z,92.42
2023-02-15T01:38:40.719Z,91.52
2023-02-15T01:41:25.480Z,90.71
2023-02-15T01:43:56.188Z,91.11
2023-02-15T01:46:32.296Z,90.98
2023-02-15T01:49:10.740Z,90.88
2023-02-15T01:51:38.825Z,92.69
2023-02-15T01:54:12.905Z,92.53
2023-02-15T01:56:41.863Z,92.57
2023-02-15T01:59:15.804Z,92.38
2023-02-15T02:01:42.327Z,91.52
2023-02-15T02:04:18.882Z,92.28
2023-02-15T02:06:49.563Z,92.83
2023-02-15T02:09:16.014Z,92.84
2023-02-15T02:11:45.817Z,92.42
2023-02-15T02:14:12.851Z,92.33
2023-02-15T02:16:53.226Z,92.66
2023-02-15T02:19:46.618Z,92.03
2023-02-15T02:22:50.434Z,91.06
2023-02-15T02:25:33.753Z,91.07
2023-02-15T02:28:36.657Z,92.56
2023-02-15T02:31:49.181Z,91.71
2023-02-15T02:34:32.649Z,91.49
2023-02-15T02:37:24.237Z,92.38
2023-02-15T02:40:04.721Z,91.22
2023-02-15T02:42:39.839Z,92.08
2023-02-15T02:45:07.829Z,92.05
2023-02-15T02:47:39.948Z,91.55
2023-02-15T02:50:10.778Z,90.89
2023-02-15T02:52:52.382Z,91.49
2023-02-15T02:55:30.961Z,91.26
2023-02-15T02:58:16.782Z,91.30
2023-02-15T03:00:49.368Z,91.20
2023-02-15T03:03:38.676Z,90.00
2023-02-15T03:06:11.109Z,90.88
2023-02-15T03:08:43.422Z,90.31
2023-02-15T03:11:10.034Z,90.47
2023-02-15T03:13:36.698Z,90.01
2023-02-15T03:16:26.357Z,90.57
2023-02-15T03:18:59.598Z,90.11
2023-02-15T03:21:58.593Z,89.52
2023-02-15T03:24:31.242Z,88.92
2023-02-15T03:26:58.105Z,88.76
2023-02-15T03:29:28.317Z,89.81
2023-02-15T03:31:58.877Z,89.99
2023-02-15T03:34:26.169Z,90.08
2023-02-15T03:37:17.372Z,89.51
2023-02-15T03:39:53.473Z,91.03
2023-02-15T03:42:32.459Z,91.61
2023-02-15T03:45:03.506Z,92.02
2023-02-15T03:47:32.235Z,91.29
2023-02-15T03:50:27.796Z,91.39
2023-02-15T03:52:56.521Z,91.54
2023-02-15T03:55:23.121Z,92.49
2023-02-15T03:58:08.332Z,92.42
2023-02-15T04:00:57.089Z,92.95
2023-02-15T04:03:46.764Z,92.38
2023-02-15T04:06:13.139Z,92.02
2023-02-15T04:08:58.277Z,90.32
2023-02-15T04:11:24.707Z,90.02
2023-02-15T04:13:57.241Z,89.97
2023-02-15T04:16:24.760Z,90.70
2023-02-15T04:19:09.784Z,91.17
2023-02-15T04:21:54.825Z,90.21
2023-02-15T04:24:39.989Z,91.27
2023-02-15T04:27:06.790Z,91.26
2023-02-15T04:29:33.462Z,91.92
2023-02-15T04:32:02.131Z,91.20
2023-02-15T04:34:28.586Z,91.02
2023-02-15T04:36:54.986Z,90.91
2023-02-15T04:39:21.373Z,91.76
2023-02-15T04:41:48.677Z,91.20
2023-02-15T04:44:15.184Z,92.48
2023-02-15T04:46:41.597Z,92.97
2023-02-15T04:49:09.470Z,92.80
2023-02-15T04:51:35.887Z,93.75
2023-02-15T04:54:02.292Z,93.47
2023-02-15T04:56:30.875Z,97.96
2023-02-15T04:58:57.333Z,100.00
2023-02-15T05:01:23.772Z,99.27
2023-02-15T05:03:50.284Z,100.00
2023-02-15T05:06:16.719Z,100.00
2023-02-15T05:08:43.130Z,100.00
2023-02-15T05:11:09.614Z,100.00
2023-02-15T05:13:36.017Z,100.00
2023-02-15T05:16:02.819Z,100.00
2023-02-15T05:18:29.438Z,100.00
2023-02-15T05:20:55.873Z,100.00
2023-02-15T05:23:22.280Z,100.00
2023-02-15T05:26:08.175Z,100.00
2023-02-15T05:28:35.726Z,100.00
2023-02-15T05:31:12.718Z,100.00
2023-02-15T05:33:40.302Z,100.00
2023-02-15T05:36:07.614Z,100.00
2023-02-15T05:38:34.421Z,100.00
2023-02-15T05:41:00.939Z,100.00
2023-02-15T05:43:27.652Z,100.00
2023-02-15T05:45:55.728Z,100.00
2023-02-15T05:48:24.958Z,100.00
2023-02-15T05:51:13.849Z,100.00
2023-02-15T05:53:40.710Z,100.00
2023-02-15T05:56:09.013Z,100.00
2023-02-15T05:58:38.839Z,100.00
2023-02-15T06:01:23.901Z,100.00
2023-02-15T06:03:50.405Z,100.00
2023-02-15T06:06:17.014Z,100.00
2023-02-15T06:08:43.460Z,100.00
2023-02-15T06:11:10.244Z,100.00
2023-02-15T06:13:38.697Z,100.00
2023-02-15T06:16:06.615Z,100.00
2023-02-15T06:18:33.143Z,100.00
2023-02-15T06:20:59.571Z,100.00
2023-02-15T06:23:26.006Z,100.00
2023-02-15T06:25:52.547Z,100.00
2023-02-15T06:28:18.984Z,100.00
2023-02-15T06:30:45.415Z,100.00
2023-02-15T06:33:11.824Z,100.00
2023-02-15T06:35:38.241Z,100.00
2023-02-15T06:38:05.696Z,100.00
2023-02-15T06:40:32.090Z,100.00
2023-02-15T06:42:58.486Z,100.00
2023-02-15T06:45:24.923Z,100.00
2023-02-15T06:47:51.321Z,100.00
2023-02-15T06:50:17.771Z,100.00
2023-02-15T06:52:44.238Z,100.00
2023-02-15T06:55:10.627Z,100.00
2023-02-15T06:57:37.429Z,100.00
2023-02-15T07:00:05.854Z,100.00
2023-02-15T07:02:32.565Z,100.00
2023-02-15T07:04:59.046Z,100.00
2023-02-15T07:07:25.511Z,100.00
2023-02-15T07:09:52.191Z,100.00
2023-02-15T07:12:37.424Z,100.00
2023-02-15T07:15:06.899Z,100.00
2023-02-15T07:17:35.897Z,100.00
2023-02-15T07:20:05.829Z,100.00
2023-02-15T07:22:32.299Z,100.00
2023-02-15T07:24:58.751Z,100.00
2023-02-15T07:27:25.144Z,100.00
2023-02-15T07:29:51.582Z,100.00
2023-02-15T07:32:18.195Z,100.00
2023-02-15T07:34:44.625Z,100.00
2023-02-15T07:37:11.072Z,100.00
2023-02-15T07:39:37.481Z,100.00
2023-02-15T07:42:03.889Z,100.00
2023-02-15T07:44:31.114Z,100.00
2023-02-15T07:46:57.515Z,100.00
2023-02-15T07:49:24.159Z,100.00
2023-02-15T07:51:50.684Z,100.00
2023-02-15T07:54:17.089Z,100.00
2023-02-15T07:56:43.497Z,100.00
2023-02-15T07:59:10.185Z,100.00
2023-02-15T08:01:38.103Z,100.00
2023-02-15T08:04:06.994Z,100.00
2023-02-15T08:06:36.788Z,100.00
2023-02-15T08:09:08.604Z,100.00
2023-02-15T08:11:43.668Z,100.00
2023-02-15T08:14:15.504Z,100.00
2023-02-15T08:16:44.895Z,100.00
2023-02-15T08:19:12.564Z,100.00
2023-02-15T08:21:41.618Z,100.00
2023-02-15T08:24:09.501Z,100.00
2023-02-15T08:26:36.690Z,100.00
2023-02-15T08:29:04.106Z,100.00
2023-02-15T08:31:30.750Z,100.00
2023-02-15T08:33:58.242Z,100.00
2023-02-15T08:36:29.786Z,100.00
2023-02-15T08:38:59.263Z,100.00
2023-02-15T08:41:28.031Z,100.00
2023-02-15T08:43:56.265Z,100.00
2023-02-15T08:46:24.492Z,100.00
2023-02-15T08:48:51.411Z,100.00
2023-02-15T08:51:26.218Z,100.00
2023-02-15T08:53:55.148Z,100.00
2023-02-15T08:56:27.085Z,100.00
2023-02-15T08:58:54.298Z,100.00
2023-02-15T09:01:23.399Z,100.00
2023-02-15T09:03:54.306Z,100.00
2023-02-15T09:06:21.873Z,100.00
2023-02-15T09:08:48.385Z,100.00
2023-02-15T09:11:23.185Z,100.00
2023-02-15T09:13:53.071Z,100.00
2023-02-15T09:16:19.501Z,100.00
2023-02-15T09:18:46.277Z,100.00
2023-02-15T09:21:18.192Z,100.00
2023-02-15T09:23:45.879Z,100.00
2023-02-15T09:26:15.353Z,100.00
2023-02-15T09:28:42.216Z,100.00
2023-02-15T09:31:18.291Z,100.00
2023-02-15T09:33:46.895Z,100.00
2023-02-15T09:36:27.925Z,100.00
2023-02-15T09:39:00.000Z,100.00
2023-02-15T09:41:38.312Z,100.00
2023-02-15T09:44:23.174Z,100.00
2023-02-15T09:47:28.637Z,100.00
2023-02-15T09:50:19.989Z,100.00
2023-02-15T09:52:48.883Z,100.00
2023-02-15T09:55:49.407Z,100.00
2023-02-15T09:58:38.000Z,100.00
2023-02-15T10:01:21.759Z,100.00
2023-02-15T10:04:19.336Z,100.00
2023-02-15T10:07:14.991Z,100.00
2023-02-15T10:10:08.570Z,100.00
2023-02-15T10:13:13.766Z,100.00
2023-02-15T10:15:54.252Z,100.00
2023-02-15T10:18:51.449Z,100.00
2023-02-15T10:21:41.332Z,100.00
2023-02-15T10:24:23.837Z,100.00
2023-02-15T10:26:50.313Z,100.00
2023-02-15T10:29:32.702Z,100.00
2023-02-15T10:32:24.424Z,100.00
2023-02-15T10:35:24.434Z,100.00
2023-02-15T10:38:06.671Z,100.00
2023-02-15T10:40:47.460Z,100.00
2023-02-15T10:43:19.840Z,100.00
2023-02-15T10:45:57.817Z,100.00
2023-02-15T10:48:58.577Z,100.00
2023-02-15T10:51:43.837Z,100.00
2023-02-15T10:54:49.218Z,100.00
2023-02-15T10:57:40.526Z,100.00
2023-02-15T11:00:10.416Z,100.00
2023-02-15T11:03:01.903Z,100.00
2023-02-15T11:06:02.222Z,100.00
2023-02-15T11:08:32.445Z,100.00
2023-02-15T11:11:12.627Z,100.00
2023-02-15T11:13:48.173Z,100.00
2023-02-15T11:16:23.854Z,100.00
2023-02-15T11:19:11.898Z,100.00
2023-02-15T11:21:43.878Z,100.00
2023-02-15T11:24:19.184Z,100.00
2023-02-15T11:26:52.690Z,100.00
2023-02-15T11:29:41.644Z,100.00
2023-02-15T11:32:26.917Z,100.00
2023-02-15T11:35:15.981Z,100.00
2023-02-15T11:37:59.621Z,100.00
2023-02-15T11:40:36.329Z,100.00
2023-02-15T11:43:14.509Z,100.00
2023-02-15T11:45:43.547Z,100.00
2023-02-15T11:48:12.765Z,100.00
2023-02-15T11:50:39.796Z,100.00
2023-02-15T11:53:12.585Z,100.00
2023-02-15T11:55:39.652Z,100.00
2023-02-15T11:58:22.124Z,100.00
2023-02-15T12:00:53.330Z,100.00
2023-02-15T12:03:25.404Z,100.00
2023-02-15T12:05:57.276Z,100.00
2023-02-15T12:08:23.701Z,100.00
2023-02-15T12:11:01.623Z,100.00
2023-02-15T12:13:28.342Z,100.00
2023-02-15T12:15:58.375Z,100.00
2023-02-15T12:18:45.168Z,100.00
2023-02-15T12:21:29.111Z,100.00
2023-02-15T12:24:00.922Z,100.00
2023-02-15T12:26:33.108Z,98.09
2023-02-15T12:29:03.112Z,98.53
2023-02-15T12:31:37.116Z,97.43
2023-02-15T12:34:26.245Z,97.28
2023-02-15T12:36:58.892Z,96.02
2023-02-15T12:39:28.480Z,96.33
2023-02-15T12:41:54.865Z,95.17
2023-02-15T12:44:25.229Z,93.73
2023-02-15T12:47:04.946Z,93.79
2023-02-15T12:49:36.951Z,91.73
2023-02-15T12:52:21.042Z,92.26
2023-02-15T12:54:48.325Z,90.34
2023-02-15T12:57:27.594Z,94.32
2023-02-15T13:00:06.965Z,89.63
2023-02-15T13:02:43.788Z,91.23
2023-02-15T13:05:38.201Z,87.19
2023-02-15T13:08:17.579Z,89.72
2023-02-15T13:10:56.903Z,86.86
2023-02-15T13:13:27.207Z,88.44
2023-02-15T13:15:59.258Z,87.49
2023-02-15T13:18:37.800Z,86.27
2023-02-15T13:21:12.070Z,85.50
2023-02-15T13:23:43.159Z,87.20
2023-02-15T13:26:11.885Z,84.79
2023-02-15T13:28:48.324Z,84.93
2023-02-15T13:31:18.357Z,83.26
2023-02-15T13:33:50.385Z,84.65
2023-02-15T13:36:25.720Z,87.67
2023-02-15T13:38:58.345Z,84.37
2023-02-15T13:41:36.640Z,80.38
2023-02-15T13:44:38.622Z,82.36
2023-02-15T13:47:18.148Z,79.18
2023-02-15T13:50:07.783Z,80.92
2023-02-15T13:52:57.429Z,80.01
2023-02-15T13:55:35.537Z,79.49
2023-02-15T13:58:39.376Z,77.73
2023-02-15T14:01:19.374Z,77.84
2023-02-15T14:04:11.401Z,80.51
2023-02-15T14:07:07.321Z,80.73
2023-02-15T14:09:48.797Z,79.68
2023-02-15T14:12:46.755Z,76.69
2023-02-15T14:15:13.107Z,79.72
2023-02-15T14:17:55.284Z,81.02
2023-02-15T14:20:40.336Z,80.64
2023-02-15T14:23:29.000Z,78.70
2023-02-15T14:26:02.851Z,78.79
2023-02-15T14:28:38.299Z,79.73
2023-02-15T14:31:08.138Z,77.72
2023-02-15T14:33:53.517Z,77.26
2023-02-15T14:36:20.936Z,77.71
2023-02-15T14:39:30.333Z,77.42
2023-02-15T14:42:02.909Z,77.83
2023-02-15T14:45:02.380Z,74.97
2023-02-15T14:47:37.684Z,78.53
2023-02-15T14:50:39.500Z,77.84
2023-02-15T14:53:27.575Z,76.83
2023-02-15T14:56:12.385Z,79.29
2023-02-15T14:58:39.139Z,76.71
2023-02-15T15:01:10.662Z,76.78
2023-02-15T15:03:44.116Z,76.39
2023-02-15T15:06:26.257Z,75.05
2023-02-15T15:08:56.642Z,76.11
2023-02-15T15:11:42.638Z,76.50
2023-02-15T15:14:11.302Z,76.25
2023-02-15T15:16:38.082Z,76.73
2023-02-15T15:19:07.245Z,76.90
2023-02-15T15:21:53.283Z,76.83
2023-02-15T15:24:38.007Z,76.16
2023-02-15T15:27:46.583Z,75.92
2023-02-15T15:30:15.763Z,76.88
2023-02-15T15:33:00.584Z,75.19
2023-02-15T15:35:44.907Z,76.20
2023-02-15T15:38:55.206Z,74.77
2023-02-15T15:41:49.597Z,75.64
2023-02-15T15:44:52.884Z,75.14
2023-02-15T15:47:41.294Z,73.80
2023-02-15T15:50:17.897Z,74.81
2023-02-15T15:52:52.412Z,74.70
2023-02-15T15:55:23.002Z,74.76
2023-02-15T15:57:55.985Z,74.01
2023-02-15T16:00:37.827Z,73.40
2023-02-15T16:03:05.289Z,75.82
2023-02-15T16:05:39.593Z,74.99
2023-02-15T16:08:06.497Z,76.45
2023-02-15T16:10:36.828Z,76.44
2023-02-15T16:13:03.367Z,78.53
2023-02-15T16:15:50.470Z,79.07
2023-02-15T16:18:18.921Z,81.97
2023-02-15T16:20:57.882Z,82.03
2023-02-15T16:23:36.243Z,82.96
2023-02-15T16:26:39.673Z,84.54
2023-02-15T16:29:26.713Z,84.76
2023-02-15T16:32:19.382Z,84.41
2023-02-15T16:34:56.825Z,86.17
2023-02-15T16:37:28.163Z,87.87
2023-02-15T16:39:56.062Z,88.18
2023-02-15T16:42:23.136Z,87.77
2023-02-15T16:44:55.002Z,88.08
2023-02-15T16:47:32.444Z,88.15
2023-02-15T16:50:02.929Z,88.52
2023-02-15T16:52:30.576Z,90.12
2023-02-15T16:55:00.827Z,90.63
2023-02-15T16:57:30.978Z,91.18
2023-02-15T17:00:04.169Z,90.71
2023-02-15T17:02:54.374Z,90.53
2023-02-15T17:05:20.889Z,91.49
2023-02-15T17:08:04.405Z,91.28
2023-02-15T17:10:32.845Z,91.48
2023-02-15T17:13:04.723Z,91.73
2023-02-15T17:15:38.478Z,92.30
2023-02-15T17:18:15.878Z,93.53
2023-02-15T17:20:44.485Z,92.83
2023-02-15T17:23:23.222Z,90.75
2023-02-15T17:25:49.978Z,92.79
2023-02-15T17:28:19.569Z,92.87
2023-02-15T17:30:47.319Z,93.65
2023-02-15T17:33:23.755Z,95.85
2023-02-15T17:36:05.445Z,94.99
2023-02-15T17:38:32.299Z,93.92
2023-02-15T17:40:59.197Z,94.87
2023-02-15T17:43:26.567Z,94.28
2023-02-15T17:45:53.555Z,94.29
2023-02-15T17:48:35.205Z,93.20
2023-02-15T17:51:03.062Z,93.71
2023-02-15T17:53:29.824Z,95.82
2023-02-15T17:55:56.241Z,94.66
2023-02-15T17:58:22.981Z,95.37
2023-02-15T18:01:11.036Z,96.07
2023-02-15T18:04:02.781Z,95.13
2023-02-15T18:06:48.374Z,95.13
2023-02-15T18:09:36.519Z,95.72
2023-02-15T18:12:15.444Z,95.95
2023-02-15T18:14:41.905Z,96.35
2023-02-15T18:17:12.239Z,96.75
2023-02-15T18:19:38.902Z,95.25
2023-02-15T18:22:11.387Z,96.28
2023-02-15T18:24:37.824Z,96.26
2023-02-15T18:27:05.274Z,95.92
2023-02-15T18:29:32.235Z,96.04
2023-02-15T18:32:00.157Z,95.69
2023-02-15T18:34:38.238Z,96.45
2023-02-15T18:37:07.244Z,96.65
2023-02-15T18:39:40.062Z,95.47
2023-02-15T18:42:20.536Z,96.65
2023-02-15T18:44:47.603Z,95.54
2023-02-15T18:47:14.010Z,94.91
2023-02-15T18:49:40.394Z,95.00
2023-02-15T18:52:14.429Z,95.86
2023-02-15T18:54:42.010Z,94.88
2023-02-15T18:57:15.830Z,95.81
2023-02-15T18:59:42.338Z,96.20
2023-02-15T19:02:17.258Z,97.25
2023-02-15T19:04:45.320Z,97.38
2023-02-15T19:07:17.780Z,97.20
2023-02-15T19:09:47.756Z,97.06
2023-02-15T19:12:14.198Z,97.28
2023-02-15T19:14:40.716Z,96.92
2023-02-15T19:17:15.260Z,96.83
2023-02-15T19:19:41.753Z,96.67
2023-02-15T19:22:30.367Z,96.63
2023-02-15T19:24:59.263Z,94.68
2023-02-15T19:27:28.615Z,94.62
2023-02-15T19:29:55.095Z,96.19
2023-02-15T19:32:21.605Z,95.88
2023-02-15T19:34:48.055Z,95.57
2023-02-15T19:37:36.974Z,94.65
2023-02-15T19:40:04.961Z,95.17
2023-02-15T19:42:32.475Z,94.82
2023-02-15T19:44:58.859Z,95.58
2023-02-15T19:47:27.840Z,95.70
2023-02-15T19:50:00.223Z,96.09
2023-02-15T19:52:26.639Z,96.50
2023-02-15T19:54:54.704Z,96.30
2023-02-15T19:57:21.569Z,96.21
2023-02-15T19:59:47.965Z,96.06
2023-02-15T20:02:15.733Z,96.20
2023-02-15T20:04:42.258Z,95.70
2023-02-15T20:07:28.292Z,94.85
2023-02-15T20:09:54.742Z,95.07
2023-02-15T20:12:24.365Z,95.42
2023-02-15T20:14:51.841Z,95.35
2023-02-15T20:17:18.733Z,96.00
2023-02-15T20:19:46.116Z,95.91
2023-02-15T20:22:24.980Z,95.84
2023-02-15T20:24:52.718Z,96.37
2023-02-15T20:27:19.935Z,95.96
2023-02-15T20:29:46.380Z,95.96
2023-02-15T20:32:13.020Z,96.07
2023-02-15T20:34:39.543Z,96.29
2023-02-15T20:37:06.314Z,96.39
2023-02-15T20:39:34.788Z,95.92
2023-02-15T20:42:01.197Z,95.29
2023-02-15T20:44:30.777Z,95.11
2023-02-15T20:46:59.133Z,95.72
2023-02-15T20:49:27.403Z,95.26
2023-02-15T20:51:56.139Z,95.53
2023-02-15T20:54:28.890Z,95.01
2023-02-15T20:56:55.380Z,94.89
2023-02-15T20:59:23.446Z,94.83
2023-02-15T21:01:51.546Z,94.70
2023-02-15T21:04:32.025Z,94.75
2023-02-15T21:06:59.792Z,93.75
2023-02-15T21:09:26.420Z,94.53
2023-02-15T21:11:55.485Z,94.43
2023-02-15T21:14:25.838Z,94.36
2023-02-15T21:16:53.084Z,94.71
2023-02-15T21:19:21.513Z,94.38
2023-02-15T21:21:50.045Z,95.23
2023-02-15T21:24:34.780Z,95.24
2023-02-15T21:27:03.545Z,94.92
2023-02-15T21:29:30.900Z,95.21
2023-02-15T21:32:01.156Z,94.77
2023-02-15T21:34:27.725Z,94.96
2023-02-15T21:36:54.563Z,94.59
2023-02-15T21:39:23.887Z,94.72
2023-02-15T21:42:11.204Z,94.46
2023-02-15T21:44:56.373Z,95.19
2023-02-15T21:47:47.125Z,94.77
2023-02-15T21:50:41.925Z,94.85
2023-02-15T21:53:12.298Z,95.01
2023-02-15T21:55:38.850Z,94.91
2023-02-15T21:58:06.267Z,94.86
2023-02-15T22:00:33.795Z,95.24
2023-02-15T22:03:01.074Z,95.32
2023-02-15T22:05:30.993Z,95.21
2023-02-15T22:07:57.753Z,94.94
2023-02-15T22:10:32.468Z,94.83
2023-02-15T22:13:03.293Z,94.81
2023-02-15T22:15:35.925Z,94.58
2023-02-15T22:18:02.648Z,95.05
2023-02-15T22:20:29.149Z,95.17
2023-02-15T22:22:55.555Z,95.21
2023-02-15T22:25:24.574Z,95.15
2023-02-15T22:27:52.863Z,94.70
2023-02-15T22:30:25.430Z,94.66
2023-02-15T22:32:52.934Z,94.67
2023-02-15T22:35:28.972Z,94.98
2023-02-15T22:37:55.389Z,93.74
2023-02-15T22:40:25.613Z,93.25
2023-02-15T22:42:53.521Z,94.13
2023-02-15T22:45:23.924Z,95.44
2023-02-15T22:47:53.441Z,96.16
2023-02-15T22:50:26.144Z,96.74
2023-02-15T22:52:53.033Z,97.71
2023-02-15T22:55:22.162Z,97.22
2023-02-15T22:57:51.562Z,97.92
2023-02-15T23:00:24.217Z,98.68
2023-02-15T23:02:50.814Z,97.16
2023-02-15T23:05:26.407Z,96.60
2023-02-15T23:07:53.168Z,96.88
2023-02-15T23:10:21.477Z,97.37
2023-02-15T23:13:09.719Z,96.75
2023-02-15T23:15:37.061Z,96.13
2023-02-15T23:18:17.098Z,95.56
2023-02-15T23:20:54.812Z,94.62
2023-02-15T23:23:29.484Z,95.96
2023-02-15T23:25:56.561Z,96.83
2023-02-15T23:28:41.008Z,96.68
2023-02-15T23:31:18.317Z,95.98
2023-02-15T23:33:45.021Z,94.73
2023-02-15T23:36:34.314Z,95.49
2023-02-15T23:39:30.924Z,96.47
2023-02-15T23:41:59.167Z,96.81
2023-02-15T23:44:25.718Z,98.06
2023-02-15T23:46:52.330Z,98.27
2023-02-15T23:49:19.939Z,98.21
2023-02-15T23:51:49.240Z,99.11
2023-02-15T23:54:17.377Z,100.00
2023-02-15T23:56:46.270Z,100.00
2023-02-15T23:59:17.787Z,100.00
